sensor_id;sensor_type;location;lat;lon;timestamp;P1;durP1;ratioP1;P2;durP2;ratioP2
82417;SDS011;72059;53.734;10.260;2023-12-28T00:02:17;3.90;;;3.50;;
82417;SDS011;72059;53.734;10.260;2023-12-28T00:04:46;4.40;;;4.00;;
82417;SDS011;72059;53.734;10.260;2023-12-28T00:07:13;7.03;;;3.75;;
82417;SDS011;72059;53.734;10.260;2023-12-28T00:09:40;3.98;;;3.55;;
82417;SDS011;72059;53.734;10.260;2023-12-28T00:12:08;3.90;;;3.60;;
82417;SDS011;72059;53.734;10.260;2023-12-28T00:14:37;4.80;;;3.65;;
82417;SDS011;72059;53.734;10.260;2023-12-28T00:17:04;6.42;;;3.50;;
82417;SDS011;72059;53.734;10.260;2023-12-28T00:19:32;5.25;;;3.45;;
82417;SDS011;72059;53.734;10.260;2023-12-28T00:22:02;4.22;;;3.55;;
82417;SDS011;72059;53.734;10.260;2023-12-28T00:24:30;5.40;;;3.67;;
82417;SDS011;72059;53.734;10.260;2023-12-28T00:27:02;5.17;;;3.50;;
82417;SDS011;72059;53.734;10.260;2023-12-28T00:29:29;8.00;;;3.60;;
82417;SDS011;72059;53.734;10.260;2023-12-28T00:31:56;4.80;;;3.50;;
82417;SDS011;72059;53.734;10.260;2023-12-28T00:34:24;4.45;;;3.55;;
82417;SDS011;72059;53.734;10.260;2023-12-28T00:36:51;3.37;;;3.08;;
82417;SDS011;72059;53.734;10.260;2023-12-28T00:39:18;5.45;;;3.08;;
82417;SDS011;72059;53.734;10.260;2023-12-28T00:41:46;4.45;;;3.45;;
82417;SDS011;72059;53.734;10.260;2023-12-28T00:44:13;5.22;;;2.62;;
82417;SDS011;72059;53.734;10.260;2023-12-28T00:46:41;4.92;;;2.90;;
82417;SDS011;72059;53.734;10.260;2023-12-28T00:49:08;5.75;;;3.08;;
82417;SDS011;72059;53.734;10.260;2023-12-28T00:51:36;5.85;;;3.37;;
82417;SDS011;72059;53.734;10.260;2023-12-28T00:54:03;3.20;;;2.83;;
82417;SDS011;72059;53.734;10.260;2023-12-28T00:56:31;4.78;;;3.22;;
82417;SDS011;72059;53.734;10.260;2023-12-28T00:58:58;3.75;;;3.08;;
82417;SDS011;72059;53.734;10.260;2023-12-28T01:01:27;4.97;;;2.90;;
82417;SDS011;72059;53.734;10.260;2023-12-28T01:03:56;3.60;;;3.08;;
82417;SDS011;72059;53.734;10.260;2023-12-28T01:06:24;3.60;;;2.90;;
82417;SDS011;72059;53.734;10.260;2023-12-28T01:08:55;4.28;;;3.20;;
82417;SDS011;72059;53.734;10.260;2023-12-28T01:11:22;3.42;;;3.02;;
82417;SDS011;72059;53.734;10.260;2023-12-28T01:13:51;6.30;;;3.47;;
82417;SDS011;72059;53.734;10.260;2023-12-28T01:16:18;7.12;;;3.83;;
82417;SDS011;72059;53.734;10.260;2023-12-28T01:18:46;4.95;;;3.08;;
82417;SDS011;72059;53.734;10.260;2023-12-28T01:21:13;4.97;;;3.27;;
82417;SDS011;72059;53.734;10.260;2023-12-28T01:23:41;4.78;;;3.35;;
82417;SDS011;72059;53.734;10.260;2023-12-28T01:26:14;8.50;;;3.58;;
82417;SDS011;72059;53.734;10.260;2023-12-28T01:28:42;4.53;;;3.15;;
82417;SDS011;72059;53.734;10.260;2023-12-28T01:31:10;3.75;;;3.42;;
82417;SDS011;72059;53.734;10.260;2023-12-28T01:33:37;3.50;;;3.20;;
82417;SDS011;72059;53.734;10.260;2023-12-28T01:36:22;4.53;;;3.85;;
82417;SDS011;72059;53.734;10.260;2023-12-28T01:38:46;4.03;;;3.37;;
82417;SDS011;72059;53.734;10.260;2023-12-28T01:41:14;4.47;;;3.40;;
82417;SDS011;72059;53.734;10.260;2023-12-28T01:43:41;5.45;;;3.50;;
82417;SDS011;72059;53.734;10.260;2023-12-28T01:46:13;5.78;;;3.50;;
82417;SDS011;72059;53.734;10.260;2023-12-28T01:48:42;7.47;;;3.55;;
82417;SDS011;72059;53.734;10.260;2023-12-28T01:51:14;6.87;;;4.12;;
82417;SDS011;72059;53.734;10.260;2023-12-28T01:53:42;5.28;;;3.98;;
82417;SDS011;72059;53.734;10.260;2023-12-28T01:56:11;5.33;;;3.87;;
82417;SDS011;72059;53.734;10.260;2023-12-28T01:58:40;4.03;;;3.50;;
82417;SDS011;72059;53.734;10.260;2023-12-28T02:01:09;7.03;;;3.40;;
82417;SDS011;72059;53.734;10.260;2023-12-28T02:03:38;4.25;;;3.62;;
82417;SDS011;72059;53.734;10.260;2023-12-28T02:06:08;6.80;;;3.62;;
82417;SDS011;72059;53.734;10.260;2023-12-28T02:08:36;4.62;;;3.72;;
82417;SDS011;72059;53.734;10.260;2023-12-28T02:11:04;9.25;;;3.72;;
82417;SDS011;72059;53.734;10.260;2023-12-28T02:13:31;5.87;;;4.28;;
82417;SDS011;72059;53.734;10.260;2023-12-28T02:16:01;5.42;;;3.92;;
82417;SDS011;72059;53.734;10.260;2023-12-28T02:18:38;11.18;;;4.40;;
82417;SDS011;72059;53.734;10.260;2023-12-28T02:21:02;5.12;;;4.17;;
82417;SDS011;72059;53.734;10.260;2023-12-28T02:23:32;4.60;;;4.17;;
82417;SDS011;72059;53.734;10.260;2023-12-28T02:25:59;5.87;;;4.42;;
82417;SDS011;72059;53.734;10.260;2023-12-28T02:28:27;7.33;;;4.40;;
82417;SDS011;72059;53.734;10.260;2023-12-28T02:30:54;5.45;;;4.62;;
82417;SDS011;72059;53.734;10.260;2023-12-28T02:33:26;5.40;;;4.60;;
82417;SDS011;72059;53.734;10.260;2023-12-28T02:38:36;7.00;;;4.37;;
82417;SDS011;72059;53.734;10.260;2023-12-28T02:41:04;7.75;;;4.45;;
82417;SDS011;72059;53.734;10.260;2023-12-28T02:43:32;7.00;;;5.03;;
82417;SDS011;72059;53.734;10.260;2023-12-28T02:46:00;6.22;;;4.83;;
82417;SDS011;72059;53.734;10.260;2023-12-28T02:48:27;9.33;;;5.47;;
82417;SDS011;72059;53.734;10.260;2023-12-28T02:50:55;8.25;;;4.45;;
82417;SDS011;72059;53.734;10.260;2023-12-28T02:53:22;5.17;;;4.58;;
82417;SDS011;72059;53.734;10.260;2023-12-28T02:55:50;7.53;;;5.08;;
82417;SDS011;72059;53.734;10.260;2023-12-28T02:58:17;6.40;;;5.17;;
82417;SDS011;72059;53.734;10.260;2023-12-28T03:00:45;5.85;;;4.58;;
82417;SDS011;72059;53.734;10.260;2023-12-28T03:03:14;6.72;;;4.62;;
82417;SDS011;72059;53.734;10.260;2023-12-28T03:05:41;5.87;;;5.28;;
82417;SDS011;72059;53.734;10.260;2023-12-28T03:08:09;8.23;;;5.08;;
82417;SDS011;72059;53.734;10.260;2023-12-28T03:10:36;5.53;;;4.78;;
82417;SDS011;72059;53.734;10.260;2023-12-28T03:13:03;8.78;;;4.42;;
82417;SDS011;72059;53.734;10.260;2023-12-28T03:15:31;4.28;;;3.87;;
82417;SDS011;72059;53.734;10.260;2023-12-28T03:17:59;6.58;;;4.42;;
82417;SDS011;72059;53.734;10.260;2023-12-28T03:20:26;5.92;;;4.35;;
82417;SDS011;72059;53.734;10.260;2023-12-28T03:22:53;6.55;;;4.78;;
82417;SDS011;72059;53.734;10.260;2023-12-28T03:25:21;7.28;;;5.30;;
82417;SDS011;72059;53.734;10.260;2023-12-28T03:27:48;4.67;;;4.28;;
82417;SDS011;72059;53.734;10.260;2023-12-28T03:30:16;5.72;;;4.90;;
82417;SDS011;72059;53.734;10.260;2023-12-28T03:32:43;10.05;;;5.75;;
82417;SDS011;72059;53.734;10.260;2023-12-28T03:35:10;6.97;;;5.42;;
82417;SDS011;72059;53.734;10.260;2023-12-28T03:37:38;7.45;;;5.08;;
82417;SDS011;72059;53.734;10.260;2023-12-28T03:40:05;6.85;;;4.80;;
82417;SDS011;72059;53.734;10.260;2023-12-28T03:42:33;5.72;;;4.50;;
82417;SDS011;72059;53.734;10.260;2023-12-28T03:45:01;8.93;;;5.03;;
82417;SDS011;72059;53.734;10.260;2023-12-28T03:47:28;7.75;;;4.67;;
82417;SDS011;72059;53.734;10.260;2023-12-28T03:49:55;7.35;;;4.53;;
82417;SDS011;72059;53.734;10.260;2023-12-28T03:52:25;6.20;;;4.78;;
82417;SDS011;72059;53.734;10.260;2023-12-28T03:54:57;6.08;;;5.20;;
82417;SDS011;72059;53.734;10.260;2023-12-28T03:57:25;6.40;;;4.90;;
82417;SDS011;72059;53.734;10.260;2023-12-28T03:59:52;9.20;;;5.47;;
82417;SDS011;72059;53.734;10.260;2023-12-28T04:02:20;7.10;;;4.90;;
82417;SDS011;72059;53.734;10.260;2023-12-28T04:04:49;4.97;;;4.53;;
82417;SDS011;72059;53.734;10.260;2023-12-28T04:07:18;6.25;;;4.67;;
82417;SDS011;72059;53.734;10.260;2023-12-28T04:09:45;7.00;;;5.03;;
82417;SDS011;72059;53.734;10.260;2023-12-28T04:12:12;6.08;;;4.55;;
82417;SDS011;72059;53.734;10.260;2023-12-28T04:14:40;7.22;;;4.67;;
82417;SDS011;72059;53.734;10.260;2023-12-28T04:17:07;7.62;;;4.78;;
82417;SDS011;72059;53.734;10.260;2023-12-28T04:19:35;11.57;;;4.92;;
82417;SDS011;72059;53.734;10.260;2023-12-28T04:22:02;8.68;;;5.10;;
82417;SDS011;72059;53.734;10.260;2023-12-28T04:24:30;6.95;;;4.62;;
82417;SDS011;72059;53.734;10.260;2023-12-28T04:26:57;7.03;;;5.15;;
82417;SDS011;72059;53.734;10.260;2023-12-28T04:29:24;5.58;;;5.08;;
82417;SDS011;72059;53.734;10.260;2023-12-28T04:31:52;5.95;;;4.53;;
82417;SDS011;72059;53.734;10.260;2023-12-28T04:34:19;5.53;;;4.60;;
82417;SDS011;72059;53.734;10.260;2023-12-28T04:36:47;10.40;;;5.28;;
82417;SDS011;72059;53.734;10.260;2023-12-28T04:39:14;7.17;;;4.78;;
82417;SDS011;72059;53.734;10.260;2023-12-28T04:41:41;7.10;;;4.65;;
82417;SDS011;72059;53.734;10.260;2023-12-28T04:44:09;4.97;;;4.45;;
82417;SDS011;72059;53.734;10.260;2023-12-28T04:46:39;9.60;;;5.10;;
82417;SDS011;72059;53.734;10.260;2023-12-28T04:49:10;8.85;;;4.58;;
82417;SDS011;72059;53.734;10.260;2023-12-28T04:51:42;7.30;;;4.30;;
82417;SDS011;72059;53.734;10.260;2023-12-28T04:54:10;5.33;;;3.70;;
82417;SDS011;72059;53.734;10.260;2023-12-28T04:56:37;5.60;;;3.50;;
82417;SDS011;72059;53.734;10.260;2023-12-28T04:59:05;4.83;;;3.60;;
82417;SDS011;72059;53.734;10.260;2023-12-28T05:01:32;5.62;;;3.52;;
82417;SDS011;72059;53.734;10.260;2023-12-28T05:03:59;6.70;;;3.67;;
82417;SDS011;72059;53.734;10.260;2023-12-28T05:06:27;5.78;;;3.55;;
82417;SDS011;72059;53.734;10.260;2023-12-28T05:08:55;4.50;;;3.77;;
82417;SDS011;72059;53.734;10.260;2023-12-28T05:11:22;9.90;;;3.75;;
82417;SDS011;72059;53.734;10.260;2023-12-28T05:13:50;7.45;;;4.20;;
82417;SDS011;72059;53.734;10.260;2023-12-28T05:16:17;5.12;;;3.52;;
82417;SDS011;72059;53.734;10.260;2023-12-28T05:18:44;5.75;;;3.83;;
82417;SDS011;72059;53.734;10.260;2023-12-28T05:21:12;6.47;;;3.35;;
82417;SDS011;72059;53.734;10.260;2023-12-28T05:23:40;9.55;;;4.25;;
82417;SDS011;72059;53.734;10.260;2023-12-28T05:26:07;4.50;;;3.22;;
82417;SDS011;72059;53.734;10.260;2023-12-28T05:28:35;5.40;;;3.33;;
82417;SDS011;72059;53.734;10.260;2023-12-28T05:31:02;5.87;;;3.50;;
82417;SDS011;72059;53.734;10.260;2023-12-28T05:33:30;4.80;;;3.37;;
82417;SDS011;72059;53.734;10.260;2023-12-28T05:35:57;5.70;;;3.40;;
82417;SDS011;72059;53.734;10.260;2023-12-28T05:38:25;7.12;;;3.27;;
82417;SDS011;72059;53.734;10.260;2023-12-28T05:40:52;6.08;;;3.55;;
82417;SDS011;72059;53.734;10.260;2023-12-28T05:43:20;4.22;;;3.12;;
82417;SDS011;72059;53.734;10.260;2023-12-28T05:45:47;9.15;;;3.50;;
82417;SDS011;72059;53.734;10.260;2023-12-28T05:48:14;6.05;;;3.55;;
82417;SDS011;72059;53.734;10.260;2023-12-28T05:50:42;6.00;;;3.47;;
82417;SDS011;72059;53.734;10.260;2023-12-28T05:53:09;6.50;;;3.30;;
82417;SDS011;72059;53.734;10.260;2023-12-28T05:55:38;4.83;;;3.52;;
82417;SDS011;72059;53.734;10.260;2023-12-28T05:58:07;6.33;;;3.55;;
82417;SDS011;72059;53.734;10.260;2023-12-28T06:00:34;3.67;;;3.15;;
82417;SDS011;72059;53.734;10.260;2023-12-28T06:03:05;5.15;;;3.30;;
82417;SDS011;72059;53.734;10.260;2023-12-28T06:05:32;9.25;;;3.50;;
82417;SDS011;72059;53.734;10.260;2023-12-28T06:07:59;5.78;;;3.42;;
82417;SDS011;72059;53.734;10.260;2023-12-28T06:10:27;6.78;;;3.10;;
82417;SDS011;72059;53.734;10.260;2023-12-28T06:12:55;3.55;;;3.00;;
82417;SDS011;72059;53.734;10.260;2023-12-28T06:15:22;8.53;;;3.37;;
82417;SDS011;72059;53.734;10.260;2023-12-28T06:17:49;6.03;;;3.58;;
82417;SDS011;72059;53.734;10.260;2023-12-28T06:20:17;4.62;;;2.98;;
82417;SDS011;72059;53.734;10.260;2023-12-28T06:22:45;3.75;;;2.72;;
82417;SDS011;72059;53.734;10.260;2023-12-28T06:25:15;5.45;;;3.05;;
82417;SDS011;72059;53.734;10.260;2023-12-28T06:27:43;5.62;;;3.08;;
82417;SDS011;72059;53.734;10.260;2023-12-28T06:30:10;5.03;;;2.83;;
82417;SDS011;72059;53.734;10.260;2023-12-28T06:32:38;7.65;;;3.00;;
82417;SDS011;72059;53.734;10.260;2023-12-28T06:35:06;5.15;;;2.90;;
82417;SDS011;72059;53.734;10.260;2023-12-28T06:37:34;4.45;;;2.98;;
82417;SDS011;72059;53.734;10.260;2023-12-28T06:40:01;3.08;;;2.27;;
82417;SDS011;72059;53.734;10.260;2023-12-28T06:42:29;6.75;;;3.40;;
82417;SDS011;72059;53.734;10.260;2023-12-28T06:44:56;6.05;;;3.20;;
82417;SDS011;72059;53.734;10.260;2023-12-28T06:47:24;6.03;;;3.27;;
82417;SDS011;72059;53.734;10.260;2023-12-28T06:49:51;7.12;;;3.20;;
82417;SDS011;72059;53.734;10.260;2023-12-28T06:52:19;6.47;;;3.17;;
82417;SDS011;72059;53.734;10.260;2023-12-28T06:54:46;6.67;;;3.00;;
82417;SDS011;72059;53.734;10.260;2023-12-28T06:57:15;7.05;;;3.02;;
82417;SDS011;72059;53.734;10.260;2023-12-28T06:59:42;3.45;;;2.15;;
82417;SDS011;72059;53.734;10.260;2023-12-28T07:02:10;7.12;;;3.30;;
82417;SDS011;72059;53.734;10.260;2023-12-28T07:04:37;5.03;;;2.60;;
82417;SDS011;72059;53.734;10.260;2023-12-28T07:07:05;7.33;;;3.15;;
82417;SDS011;72059;53.734;10.260;2023-12-28T07:09:32;8.00;;;3.00;;
82417;SDS011;72059;53.734;10.260;2023-12-28T07:11:59;9.05;;;2.90;;
82417;SDS011;72059;53.734;10.260;2023-12-28T07:14:27;6.28;;;3.02;;
82417;SDS011;72059;53.734;10.260;2023-12-28T07:16:55;5.22;;;2.65;;
82417;SDS011;72059;53.734;10.260;2023-12-28T07:19:22;5.37;;;2.67;;
82417;SDS011;72059;53.734;10.260;2023-12-28T07:21:50;8.78;;;2.92;;
82417;SDS011;72059;53.734;10.260;2023-12-28T07:24:17;8.18;;;3.35;;
82417;SDS011;72059;53.734;10.260;2023-12-28T07:26:44;4.97;;;2.37;;
82417;SDS011;72059;53.734;10.260;2023-12-28T07:29:12;4.40;;;2.40;;
82417;SDS011;72059;53.734;10.260;2023-12-28T07:31:39;5.67;;;2.77;;
82417;SDS011;72059;53.734;10.260;2023-12-28T07:34:07;8.48;;;2.65;;
82417;SDS011;72059;53.734;10.260;2023-12-28T07:36:34;6.03;;;2.30;;
82417;SDS011;72059;53.734;10.260;2023-12-28T07:39:01;5.83;;;2.62;;
82417;SDS011;72059;53.734;10.260;2023-12-28T07:41:29;6.92;;;2.80;;
82417;SDS011;72059;53.734;10.260;2023-12-28T07:43:56;5.95;;;2.45;;
82417;SDS011;72059;53.734;10.260;2023-12-28T07:46:24;7.30;;;2.58;;
82417;SDS011;72059;53.734;10.260;2023-12-28T07:48:51;7.50;;;2.80;;
82417;SDS011;72059;53.734;10.260;2023-12-28T07:51:18;9.55;;;2.92;;
82417;SDS011;72059;53.734;10.260;2023-12-28T07:53:46;7.40;;;2.72;;
82417;SDS011;72059;53.734;10.260;2023-12-28T07:56:13;3.62;;;2.15;;
82417;SDS011;72059;53.734;10.260;2023-12-28T07:58:41;5.97;;;2.67;;
82417;SDS011;72059;53.734;10.260;2023-12-28T08:01:11;9.25;;;3.50;;
82417;SDS011;72059;53.734;10.260;2023-12-28T08:03:38;5.65;;;2.95;;
82417;SDS011;72059;53.734;10.260;2023-12-28T08:06:06;8.10;;;3.12;;
82417;SDS011;72059;53.734;10.260;2023-12-28T08:08:33;6.60;;;2.92;;
82417;SDS011;72059;53.734;10.260;2023-12-28T08:11:02;7.08;;;2.42;;
82417;SDS011;72059;53.734;10.260;2023-12-28T08:13:30;6.65;;;2.72;;
82417;SDS011;72059;53.734;10.260;2023-12-28T08:15:58;6.78;;;2.85;;
82417;SDS011;72059;53.734;10.260;2023-12-28T08:18:25;4.08;;;2.27;;
82417;SDS011;72059;53.734;10.260;2023-12-28T08:20:52;6.25;;;2.08;;
82417;SDS011;72059;53.734;10.260;2023-12-28T08:23:20;5.67;;;2.80;;
82417;SDS011;72059;53.734;10.260;2023-12-28T08:25:47;10.43;;;2.60;;
82417;SDS011;72059;53.734;10.260;2023-12-28T08:28:15;7.35;;;2.58;;
82417;SDS011;72059;53.734;10.260;2023-12-28T08:30:42;6.25;;;2.45;;
82417;SDS011;72059;53.734;10.260;2023-12-28T08:33:10;7.58;;;2.12;;
82417;SDS011;72059;53.734;10.260;2023-12-28T08:35:37;7.12;;;2.70;;
82417;SDS011;72059;53.734;10.260;2023-12-28T08:38:05;7.70;;;2.30;;
82417;SDS011;72059;53.734;10.260;2023-12-28T08:40:33;6.05;;;2.25;;
82417;SDS011;72059;53.734;10.260;2023-12-28T08:43:00;9.25;;;2.10;;
82417;SDS011;72059;53.734;10.260;2023-12-28T08:45:27;7.50;;;2.42;;
82417;SDS011;72059;53.734;10.260;2023-12-28T08:47:55;6.67;;;2.42;;
82417;SDS011;72059;53.734;10.260;2023-12-28T08:50:23;8.53;;;2.83;;
82417;SDS011;72059;53.734;10.260;2023-12-28T08:52:50;5.42;;;2.02;;
82417;SDS011;72059;53.734;10.260;2023-12-28T08:55:17;8.55;;;2.90;;
82417;SDS011;72059;53.734;10.260;2023-12-28T08:57:45;5.65;;;1.98;;
82417;SDS011;72059;53.734;10.260;2023-12-28T09:00:13;7.42;;;2.60;;
82417;SDS011;72059;53.734;10.260;2023-12-28T09:02:42;9.78;;;2.62;;
82417;SDS011;72059;53.734;10.260;2023-12-28T09:05:09;14.50;;;2.98;;
82417;SDS011;72059;53.734;10.260;2023-12-28T09:07:37;11.10;;;2.27;;
82417;SDS011;72059;53.734;10.260;2023-12-28T09:10:06;9.45;;;2.62;;
82417;SDS011;72059;53.734;10.260;2023-12-28T09:12:33;6.90;;;2.30;;
82417;SDS011;72059;53.734;10.260;2023-12-28T09:15:01;7.65;;;2.45;;
82417;SDS011;72059;53.734;10.260;2023-12-28T09:17:29;8.78;;;2.98;;
82417;SDS011;72059;53.734;10.260;2023-12-28T09:19:56;6.47;;;2.80;;
82417;SDS011;72059;53.734;10.260;2023-12-28T09:22:28;7.87;;;2.65;;
82417;SDS011;72059;53.734;10.260;2023-12-28T09:24:55;6.00;;;2.80;;
82417;SDS011;72059;53.734;10.260;2023-12-28T09:27:23;5.80;;;2.50;;
82417;SDS011;72059;53.734;10.260;2023-12-28T09:29:51;6.53;;;3.55;;
82417;SDS011;72059;53.734;10.260;2023-12-28T09:32:18;10.72;;;3.05;;
82417;SDS011;72059;53.734;10.260;2023-12-28T09:34:45;9.63;;;2.30;;
82417;SDS011;72059;53.734;10.260;2023-12-28T09:37:13;4.58;;;1.92;;
82417;SDS011;72059;53.734;10.260;2023-12-28T09:39:40;4.80;;;1.90;;
82417;SDS011;72059;53.734;10.260;2023-12-28T09:42:19;11.20;;;3.08;;
82417;SDS011;72059;53.734;10.260;2023-12-28T09:44:50;9.00;;;2.10;;
82417;SDS011;72059;53.734;10.260;2023-12-28T09:47:18;10.88;;;2.20;;
82417;SDS011;72059;53.734;10.260;2023-12-28T09:49:45;8.25;;;2.47;;
82417;SDS011;72059;53.734;10.260;2023-12-28T09:52:14;12.80;;;2.33;;
82417;SDS011;72059;53.734;10.260;2023-12-28T09:54:41;10.55;;;2.47;;
82417;SDS011;72059;53.734;10.260;2023-12-28T09:57:09;14.20;;;2.90;;
82417;SDS011;72059;53.734;10.260;2023-12-28T09:59:38;8.90;;;2.25;;
82417;SDS011;72059;53.734;10.260;2023-12-28T10:02:06;12.23;;;2.90;;
82417;SDS011;72059;53.734;10.260;2023-12-28T10:04:34;8.13;;;2.92;;
82417;SDS011;72059;53.734;10.260;2023-12-28T10:07:02;5.62;;;1.98;;
82417;SDS011;72059;53.734;10.260;2023-12-28T10:09:30;10.13;;;2.65;;
82417;SDS011;72059;53.734;10.260;2023-12-28T10:11:58;13.65;;;3.27;;
82417;SDS011;72059;53.734;10.260;2023-12-28T10:14:26;7.90;;;2.45;;
82417;SDS011;72059;53.734;10.260;2023-12-28T10:16:53;8.35;;;2.50;;
82417;SDS011;72059;53.734;10.260;2023-12-28T10:19:21;10.05;;;2.58;;
82417;SDS011;72059;53.734;10.260;2023-12-28T10:21:49;9.15;;;2.65;;
82417;SDS011;72059;53.734;10.260;2023-12-28T10:24:16;8.35;;;2.17;;
82417;SDS011;72059;53.734;10.260;2023-12-28T10:26:44;9.85;;;2.67;;
82417;SDS011;72059;53.734;10.260;2023-12-28T10:29:11;9.68;;;2.80;;
82417;SDS011;72059;53.734;10.260;2023-12-28T10:31:41;8.28;;;1.82;;
82417;SDS011;72059;53.734;10.260;2023-12-28T10:34:09;11.95;;;2.55;;
82417;SDS011;72059;53.734;10.260;2023-12-28T10:36:36;9.98;;;2.83;;
82417;SDS011;72059;53.734;10.260;2023-12-28T10:39:05;8.75;;;2.40;;
82417;SDS011;72059;53.734;10.260;2023-12-28T10:41:37;12.40;;;2.67;;
82417;SDS011;72059;53.734;10.260;2023-12-28T10:44:06;9.23;;;2.37;;
82417;SDS011;72059;53.734;10.260;2023-12-28T10:46:39;7.92;;;2.37;;
82417;SDS011;72059;53.734;10.260;2023-12-28T10:49:10;10.48;;;2.67;;
82417;SDS011;72059;53.734;10.260;2023-12-28T10:51:40;7.78;;;2.22;;
82417;SDS011;72059;53.734;10.260;2023-12-28T10:57:37;12.30;;;3.90;;
82417;SDS011;72059;53.734;10.260;2023-12-28T10:59:35;12.50;;;2.90;;
82417;SDS011;72059;53.734;10.260;2023-12-28T11:02:17;12.88;;;2.50;;
82417;SDS011;72059;53.734;10.260;2023-12-28T11:04:50;11.53;;;2.90;;
82417;SDS011;72059;53.734;10.260;2023-12-28T11:07:19;6.25;;;2.37;;
82417;SDS011;72059;53.734;10.260;2023-12-28T11:09:48;9.65;;;2.42;;
82417;SDS011;72059;53.734;10.260;2023-12-28T11:12:16;9.40;;;2.58;;
82417;SDS011;72059;53.734;10.260;2023-12-28T11:14:45;11.43;;;2.90;;
82417;SDS011;72059;53.734;10.260;2023-12-28T11:17:13;9.88;;;2.90;;
82417;SDS011;72059;53.734;10.260;2023-12-28T11:19:43;16.50;;;3.60;;
82417;SDS011;72059;53.734;10.260;2023-12-28T11:22:10;12.47;;;2.87;;
82417;SDS011;72059;53.734;10.260;2023-12-28T11:24:39;10.78;;;2.62;;
82417;SDS011;72059;53.734;10.260;2023-12-28T11:27:06;10.58;;;3.30;;
82417;SDS011;72059;53.734;10.260;2023-12-28T11:29:34;11.90;;;2.77;;
82417;SDS011;72059;53.734;10.260;2023-12-28T11:32:01;15.10;;;2.75;;
82417;SDS011;72059;53.734;10.260;2023-12-28T11:34:30;12.95;;;3.58;;
82417;SDS011;72059;53.734;10.260;2023-12-28T11:37:03;13.05;;;3.77;;
82417;SDS011;72059;53.734;10.260;2023-12-28T11:39:32;11.08;;;2.92;;
82417;SDS011;72059;53.734;10.260;2023-12-28T11:42:02;9.40;;;2.52;;
82417;SDS011;72059;53.734;10.260;2023-12-28T11:44:37;7.50;;;3.02;;
82417;SDS011;72059;53.734;10.260;2023-12-28T11:47:13;12.93;;;2.70;;
82417;SDS011;72059;53.734;10.260;2023-12-28T11:49:41;18.55;;;3.95;;
82417;SDS011;72059;53.734;10.260;2023-12-28T11:54:57;14.03;;;3.05;;
82417;SDS011;72059;53.734;10.260;2023-12-28T11:57:26;11.20;;;2.67;;
82417;SDS011;72059;53.734;10.260;2023-12-28T11:59:55;12.98;;;3.10;;
82417;SDS011;72059;53.734;10.260;2023-12-28T12:02:23;9.08;;;3.45;;
82417;SDS011;72059;53.734;10.260;2023-12-28T12:04:51;15.03;;;3.25;;
82417;SDS011;72059;53.734;10.260;2023-12-28T12:07:26;8.63;;;3.20;;
82417;SDS011;72059;53.734;10.260;2023-12-28T12:09:57;15.53;;;3.65;;
82417;SDS011;72059;53.734;10.260;2023-12-28T12:12:25;9.65;;;3.45;;
82417;SDS011;72059;53.734;10.260;2023-12-28T12:14:53;12.68;;;3.60;;
82417;SDS011;72059;53.734;10.260;2023-12-28T12:17:21;15.15;;;3.85;;
82417;SDS011;72059;53.734;10.260;2023-12-28T12:19:50;10.78;;;3.55;;
82417;SDS011;72059;53.734;10.260;2023-12-28T12:22:19;12.73;;;3.90;;
82417;SDS011;72059;53.734;10.260;2023-12-28T12:24:47;13.18;;;3.50;;
82417;SDS011;72059;53.734;10.260;2023-12-28T12:27:17;14.28;;;4.17;;
82417;SDS011;72059;53.734;10.260;2023-12-28T12:29:45;15.50;;;4.67;;
82417;SDS011;72059;53.734;10.260;2023-12-28T12:32:13;13.55;;;3.65;;
82417;SDS011;72059;53.734;10.260;2023-12-28T12:34:40;15.15;;;3.62;;
82417;SDS011;72059;53.734;10.260;2023-12-28T12:37:08;15.58;;;3.47;;
82417;SDS011;72059;53.734;10.260;2023-12-28T12:39:35;14.20;;;3.00;;
82417;SDS011;72059;53.734;10.260;2023-12-28T12:42:03;10.85;;;3.83;;
82417;SDS011;72059;53.734;10.260;2023-12-28T12:44:31;13.38;;;3.10;;
82417;SDS011;72059;53.734;10.260;2023-12-28T12:46:58;14.25;;;3.37;;
82417;SDS011;72059;53.734;10.260;2023-12-28T12:49:26;18.25;;;3.05;;
82417;SDS011;72059;53.734;10.260;2023-12-28T12:51:54;13.80;;;3.20;;
82417;SDS011;72059;53.734;10.260;2023-12-28T12:54:22;18.45;;;3.17;;
82417;SDS011;72059;53.734;10.260;2023-12-28T12:56:50;11.60;;;3.70;;
82417;SDS011;72059;53.734;10.260;2023-12-28T12:59:18;16.30;;;3.27;;
82417;SDS011;72059;53.734;10.260;2023-12-28T13:01:46;15.75;;;3.90;;
82417;SDS011;72059;53.734;10.260;2023-12-28T13:04:18;16.85;;;3.67;;
82417;SDS011;72059;53.734;10.260;2023-12-28T13:06:46;10.53;;;2.60;;
82417;SDS011;72059;53.734;10.260;2023-12-28T13:09:14;10.13;;;3.20;;
82417;SDS011;72059;53.734;10.260;2023-12-28T13:11:42;17.32;;;3.35;;
82417;SDS011;72059;53.734;10.260;2023-12-28T13:14:09;17.05;;;4.05;;
82417;SDS011;72059;53.734;10.260;2023-12-28T13:16:37;14.70;;;3.30;;
82417;SDS011;72059;53.734;10.260;2023-12-28T13:19:04;10.38;;;3.42;;
82417;SDS011;72059;53.734;10.260;2023-12-28T13:21:32;17.87;;;4.47;;
82417;SDS011;72059;53.734;10.260;2023-12-28T13:23:59;14.80;;;3.90;;
82417;SDS011;72059;53.734;10.260;2023-12-28T13:26:27;11.30;;;3.15;;
82417;SDS011;72059;53.734;10.260;2023-12-28T13:28:55;16.87;;;3.20;;
82417;SDS011;72059;53.734;10.260;2023-12-28T13:31:22;13.28;;;3.95;;
82417;SDS011;72059;53.734;10.260;2023-12-28T13:33:51;14.85;;;3.40;;
82417;SDS011;72059;53.734;10.260;2023-12-28T13:36:18;12.50;;;3.00;;
82417;SDS011;72059;53.734;10.260;2023-12-28T13:38:46;15.53;;;3.90;;
82417;SDS011;72059;53.734;10.260;2023-12-28T13:41:13;18.82;;;3.65;;
82417;SDS011;72059;53.734;10.260;2023-12-28T13:43:41;12.55;;;2.77;;
82417;SDS011;72059;53.734;10.260;2023-12-28T13:46:08;15.72;;;3.00;;
82417;SDS011;72059;53.734;10.260;2023-12-28T13:48:36;13.43;;;3.37;;
82417;SDS011;72059;53.734;10.260;2023-12-28T13:51:05;12.33;;;2.83;;
82417;SDS011;72059;53.734;10.260;2023-12-28T13:53:33;13.35;;;3.00;;
82417;SDS011;72059;53.734;10.260;2023-12-28T13:56:02;13.68;;;3.50;;
82417;SDS011;72059;53.734;10.260;2023-12-28T13:58:29;9.88;;;2.50;;
82417;SDS011;72059;53.734;10.260;2023-12-28T14:00:57;10.78;;;2.77;;
82417;SDS011;72059;53.734;10.260;2023-12-28T14:03:24;13.20;;;3.15;;
82417;SDS011;72059;53.734;10.260;2023-12-28T14:05:52;13.90;;;3.10;;
82417;SDS011;72059;53.734;10.260;2023-12-28T14:08:19;10.28;;;2.75;;
82417;SDS011;72059;53.734;10.260;2023-12-28T14:10:46;16.32;;;3.58;;
82417;SDS011;72059;53.734;10.260;2023-12-28T14:13:14;13.22;;;3.17;;
82417;SDS011;72059;53.734;10.260;2023-12-28T14:15:41;13.25;;;3.00;;
82417;SDS011;72059;53.734;10.260;2023-12-28T14:18:09;13.30;;;2.92;;
82417;SDS011;72059;53.734;10.260;2023-12-28T14:20:36;14.85;;;3.20;;
82417;SDS011;72059;53.734;10.260;2023-12-28T14:23:03;14.43;;;5.05;;
82417;SDS011;72059;53.734;10.260;2023-12-28T14:25:31;21.87;;;4.33;;
82417;SDS011;72059;53.734;10.260;2023-12-28T14:27:59;11.28;;;3.47;;
82417;SDS011;72059;53.734;10.260;2023-12-28T14:30:27;13.40;;;4.45;;
82417;SDS011;72059;53.734;10.260;2023-12-28T14:32:54;11.30;;;3.20;;
82417;SDS011;72059;53.734;10.260;2023-12-28T14:35:22;12.13;;;3.40;;
82417;SDS011;72059;53.734;10.260;2023-12-28T14:37:50;13.83;;;3.72;;
82417;SDS011;72059;53.734;10.260;2023-12-28T14:40:18;17.35;;;3.77;;
82417;SDS011;72059;53.734;10.260;2023-12-28T14:42:45;17.35;;;3.77;;
82417;SDS011;72059;53.734;10.260;2023-12-28T14:45:13;15.43;;;2.98;;